createdAt,value
2018-08-31T00:01:50.218Z,10.83
2018-08-31T00:04:39.264Z,10.50
2018-08-31T00:09:32.833Z,10.47
2018-08-31T00:12:38.748Z,11.37
2018-08-31T00:15:09.696Z,10.03
2018-08-31T00:17:41.741Z,10.60
2018-08-31T00:20:13.683Z,10.00
2018-08-31T00:22:43.783Z,9.80
2018-08-31T00:26:28.604Z,9.37
2018-08-31T00:29:51.218Z,9.23
2018-08-31T00:33:09.006Z,9.60
2018-08-31T00:35:57.501Z,9.80
2018-08-31T00:39:16.359Z,9.93
2018-08-31T00:42:05.737Z,9.30
2018-08-31T00:44:51.837Z,8.60
2018-08-31T00:47:22.311Z,8.83
2018-08-31T00:49:52.401Z,9.17
2018-08-31T00:52:22.623Z,8.97
2018-08-31T00:54:52.967Z,7.43
2018-08-31T00:57:23.455Z,7.47
2018-08-31T00:59:53.586Z,8.27
2018-08-31T01:02:24.572Z,7.90
2018-08-31T01:04:55.098Z,6.70
2018-08-31T01:07:25.860Z,7.03
2018-08-31T01:09:57.577Z,7.00
2018-08-31T01:12:27.649Z,7.10
2018-08-31T01:14:57.917Z,7.83
2018-08-31T01:17:28.372Z,6.80
2018-08-31T01:19:58.589Z,7.10
2018-08-31T01:22:29.116Z,6.23
2018-08-31T01:24:59.866Z,6.10
2018-08-31T01:27:29.934Z,6.17
2018-08-31T01:30:00.250Z,6.30
2018-08-31T01:32:31.062Z,6.07
2018-08-31T01:35:01.928Z,6.03
2018-08-31T01:37:32.056Z,6.23
2018-08-31T01:40:02.522Z,6.00
2018-08-31T01:42:32.954Z,5.70
2018-08-31T01:45:03.488Z,5.77
2018-08-31T01:47:33.906Z,5.80
2018-08-31T01:50:04.462Z,5.73
2018-08-31T01:52:34.688Z,5.33
2018-08-31T01:55:05.281Z,5.47
2018-08-31T01:57:36.235Z,4.80
2018-08-31T02:00:06.391Z,5.20
2018-08-31T02:02:37.102Z,5.07
2018-08-31T02:05:07.879Z,4.30
2018-08-31T02:07:38.452Z,4.93
2018-08-31T02:10:08.784Z,4.50
2018-08-31T02:12:40.135Z,4.77
2018-08-31T02:15:10.801Z,4.57
2018-08-31T02:17:41.549Z,4.47
2018-08-31T02:20:11.919Z,4.60
2018-08-31T02:22:42.060Z,4.77
2018-08-31T02:25:12.482Z,4.70
2018-08-31T02:27:42.572Z,4.63
2018-08-31T02:30:12.987Z,4.70
2018-08-31T02:32:43.371Z,5.10
2018-08-31T02:35:13.849Z,4.33
2018-08-31T02:37:43.876Z,4.57
2018-08-31T02:40:14.300Z,4.30
2018-08-31T02:42:44.852Z,4.73
2018-08-31T02:45:15.317Z,4.57
2018-08-31T02:47:45.599Z,5.07
2018-08-31T02:50:16.012Z,4.50
2018-08-31T02:52:46.432Z,4.43
2018-08-31T02:55:16.815Z,4.67
2018-08-31T02:57:46.958Z,4.87
2018-08-31T03:00:17.340Z,4.47
2018-08-31T03:02:47.441Z,5.10
2018-08-31T03:05:17.794Z,4.00
2018-08-31T03:07:48.234Z,4.73
2018-08-31T03:10:18.848Z,4.27
2018-08-31T03:12:49.249Z,5.13
2018-08-31T03:15:19.527Z,4.80
2018-08-31T03:17:50.058Z,4.40
2018-08-31T03:20:20.401Z,4.87
2018-08-31T03:22:50.855Z,4.40
2018-08-31T03:25:21.181Z,4.43
2018-08-31T03:27:51.897Z,4.53
2018-08-31T03:30:22.962Z,4.50
2018-08-31T03:32:53.193Z,4.30
2018-08-31T03:35:23.604Z,3.97
2018-08-31T03:37:53.777Z,4.40
2018-08-31T03:40:24.544Z,4.40
2018-08-31T03:42:55.044Z,4.23
2018-08-31T03:45:25.173Z,4.20
2018-08-31T03:47:55.910Z,4.23
2018-08-31T03:50:26.372Z,3.70
2018-08-31T03:52:56.771Z,4.37
2018-08-31T03:55:27.727Z,4.27
2018-08-31T03:57:58.279Z,3.60
2018-08-31T04:00:28.863Z,4.17
2018-08-31T04:02:59.358Z,3.70
2018-08-31T04:05:29.808Z,3.63
2018-08-31T04:08:00.358Z,3.93
2018-08-31T04:10:30.682Z,4.03
2018-08-31T04:13:00.997Z,3.53
2018-08-31T04:15:32.214Z,3.80
2018-08-31T04:18:02.846Z,3.40
2018-08-31T04:20:33.141Z,3.87
2018-08-31T04:23:03.528Z,3.57
2018-08-31T04:25:33.625Z,3.57
2018-08-31T04:28:04.419Z,3.83
2018-08-31T04:30:34.905Z,3.70
2018-08-31T04:33:06.124Z,3.70
2018-08-31T04:35:36.811Z,3.60
2018-08-31T04:38:07.843Z,4.30
2018-08-31T04:40:37.947Z,3.87
2018-08-31T04:43:08.624Z,3.93
2018-08-31T04:45:38.813Z,4.07
2018-08-31T04:48:09.537Z,3.90
2018-08-31T04:50:40.007Z,3.90
2018-08-31T04:53:10.231Z,3.70
2018-08-31T04:55:41.554Z,3.53
2018-08-31T04:58:12.022Z,3.60
2018-08-31T05:00:42.139Z,4.20
2018-08-31T05:03:13.104Z,4.10
2018-08-31T05:05:43.941Z,3.80
2018-08-31T05:08:14.028Z,3.60
2018-08-31T05:10:44.342Z,3.83
2018-08-31T05:13:14.567Z,3.67
2018-08-31T05:15:44.963Z,3.80
2018-08-31T05:18:15.599Z,3.47
2018-08-31T05:20:46.065Z,3.93
2018-08-31T05:23:16.464Z,3.90
2018-08-31T05:25:46.613Z,3.30
2018-08-31T05:28:17.610Z,4.17
2018-08-31T05:30:47.873Z,3.73
2018-08-31T05:33:18.250Z,3.47
2018-08-31T05:35:48.368Z,3.70
2018-08-31T05:38:18.653Z,3.80
2018-08-31T05:40:48.822Z,3.77
2018-08-31T05:43:18.979Z,4.30
2018-08-31T05:45:49.368Z,4.10
2018-08-31T05:48:19.766Z,3.97
2018-08-31T05:50:50.219Z,4.67
2018-08-31T05:53:20.701Z,4.00
2018-08-31T05:55:50.936Z,4.20
2018-08-31T05:58:21.004Z,4.10
2018-08-31T06:00:51.547Z,4.70
2018-08-31T06:03:21.941Z,3.93
2018-08-31T06:05:52.143Z,3.50
2018-08-31T06:08:22.150Z,4.00
2018-08-31T06:10:52.645Z,4.37
2018-08-31T06:13:23.629Z,3.57
2018-08-31T06:15:53.950Z,3.70
2018-08-31T06:18:24.017Z,3.70
2018-08-31T06:20:54.855Z,3.43
2018-08-31T06:23:25.334Z,4.30
2018-08-31T06:25:55.932Z,4.40
2018-08-31T06:28:26.370Z,4.20
2018-08-31T06:30:56.756Z,3.67
2018-08-31T06:33:26.950Z,3.90
2018-08-31T06:35:57.496Z,5.10
2018-08-31T06:38:27.604Z,3.97
2018-08-31T06:40:58.075Z,4.13
2018-08-31T06:43:28.587Z,4.10
2018-08-31T06:45:58.671Z,4.23
2018-08-31T06:48:29.255Z,4.10
2018-08-31T06:50:59.664Z,4.70
2018-08-31T06:53:29.894Z,4.73
2018-08-31T06:56:00.091Z,4.93
2018-08-31T06:58:30.563Z,4.33
2018-08-31T07:01:00.935Z,4.57
2018-08-31T07:03:31.303Z,4.43
2018-08-31T07:06:01.817Z,4.50
2018-08-31T07:08:32.010Z,4.63
2018-08-31T07:11:02.301Z,4.23
2018-08-31T07:13:32.661Z,4.10
2018-08-31T07:16:03.493Z,4.43
2018-08-31T07:18:34.138Z,3.83
2018-08-31T07:21:04.340Z,4.40
2018-08-31T07:23:34.540Z,4.07
2018-08-31T07:26:04.757Z,4.43
2018-08-31T07:28:35.673Z,4.07
2018-08-31T07:31:06.005Z,4.40
2018-08-31T07:33:36.197Z,3.67
2018-08-31T07:36:06.554Z,3.70
2018-08-31T07:38:36.767Z,3.90
2018-08-31T07:41:07.148Z,3.43
2018-08-31T07:43:37.380Z,3.63
2018-08-31T07:46:07.872Z,3.10
2018-08-31T07:48:38.435Z,3.50
2018-08-31T07:51:09.531Z,3.50
2018-08-31T07:53:39.828Z,4.00
2018-08-31T07:56:10.300Z,3.83
2018-08-31T07:58:40.567Z,3.53
2018-08-31T08:01:11.524Z,3.23
2018-08-31T08:03:42.109Z,3.50
2018-08-31T08:06:12.308Z,3.20
2018-08-31T08:08:42.624Z,3.60
2018-08-31T08:11:12.987Z,4.03
2018-08-31T08:13:43.503Z,4.07
2018-08-31T08:16:13.646Z,4.13
2018-08-31T08:18:44.460Z,3.90
2018-08-31T08:21:14.979Z,3.73
2018-08-31T08:23:45.204Z,4.67
2018-08-31T08:26:15.709Z,4.10
2018-08-31T08:28:45.899Z,3.70
2018-08-31T08:31:16.150Z,3.83
2018-08-31T08:33:46.738Z,4.57
2018-08-31T08:36:17.153Z,3.90
2018-08-31T08:38:47.483Z,3.37
2018-08-31T08:41:17.872Z,4.47
2018-08-31T08:43:48.340Z,4.03
2018-08-31T08:46:19.645Z,4.70
2018-08-31T08:48:50.436Z,4.13
2018-08-31T08:51:20.620Z,4.60
2018-08-31T08:53:50.775Z,5.47
2018-08-31T08:56:21.088Z,4.87
2018-08-31T08:58:51.277Z,4.73
2018-08-31T09:01:21.563Z,5.30
2018-08-31T09:03:52.093Z,4.47
2018-08-31T09:06:22.625Z,4.60
2018-08-31T09:08:53.429Z,4.23
2018-08-31T09:11:23.675Z,5.27
2018-08-31T09:13:53.688Z,5.00
2018-08-31T09:16:24.131Z,5.10
2018-08-31T09:18:54.812Z,4.80
2018-08-31T09:21:24.873Z,4.80
2018-08-31T09:23:55.228Z,5.50
2018-08-31T09:26:25.372Z,5.33
2018-08-31T09:28:55.612Z,4.80
2018-08-31T09:31:26.237Z,5.00
2018-08-31T09:33:56.667Z,4.97
2018-08-31T09:36:27.433Z,5.07
2018-08-31T09:38:57.645Z,4.70
2018-08-31T09:41:28.171Z,5.03
2018-08-31T09:43:58.601Z,5.20
2018-08-31T09:46:29.292Z,4.63
2018-08-31T09:48:59.970Z,4.50
2018-08-31T09:51:30.491Z,4.53
2018-08-31T09:54:01.083Z,4.35
2018-08-31T09:56:31.967Z,4.80
2018-08-31T09:59:02.583Z,4.33
2018-08-31T10:01:35.482Z,4.85
2018-08-31T10:04:07.008Z,5.00
2018-08-31T10:06:37.699Z,4.50
2018-08-31T10:09:10.120Z,5.42
2018-08-31T10:11:40.102Z,5.67
2018-08-31T10:14:11.266Z,5.30
2018-08-31T10:16:41.952Z,4.63
2018-08-31T10:19:13.009Z,4.70
2018-08-31T10:21:43.663Z,5.22
2018-08-31T10:24:14.243Z,4.55
2018-08-31T10:26:45.051Z,4.83
2018-08-31T10:29:16.071Z,5.40
2018-08-31T10:31:46.960Z,4.97
2018-08-31T10:34:17.424Z,4.93
2018-08-31T10:36:48.525Z,5.62
2018-08-31T10:39:19.008Z,5.60
2018-08-31T10:41:50.188Z,5.53
2018-08-31T10:44:21.680Z,5.95
2018-08-31T10:46:52.137Z,4.70
2018-08-31T10:49:22.536Z,5.40
2018-08-31T10:51:53.400Z,5.72
2018-08-31T10:54:24.183Z,5.70
2018-08-31T10:56:54.771Z,5.60
2018-08-31T10:59:25.272Z,5.67
2018-08-31T11:01:55.488Z,5.53
2018-08-31T11:04:26.355Z,6.60
2018-08-31T11:06:57.373Z,6.10
2018-08-31T11:09:27.430Z,6.60
2018-08-31T11:11:57.496Z,6.30
2018-08-31T11:14:28.014Z,6.47
2018-08-31T11:16:58.508Z,6.50
2018-08-31T11:19:29.083Z,5.87
2018-08-31T11:21:59.521Z,5.90
2018-08-31T11:24:29.913Z,6.40
2018-08-31T11:27:00.118Z,6.60
2018-08-31T11:29:30.602Z,6.53
2018-08-31T11:32:00.790Z,6.63
2018-08-31T11:34:31.116Z,7.07
2018-08-31T11:37:01.293Z,7.10
2018-08-31T11:39:32.192Z,6.40
2018-08-31T11:42:02.575Z,5.97
2018-08-31T11:44:33.329Z,6.00
2018-08-31T11:47:03.472Z,6.53
2018-08-31T11:49:34.037Z,5.77
2018-08-31T11:52:04.137Z,5.77
2018-08-31T11:54:34.248Z,6.40
2018-08-31T11:57:04.955Z,5.90
2018-08-31T11:59:35.152Z,5.90
2018-08-31T12:02:05.283Z,6.07
2018-08-31T12:04:35.542Z,6.70
2018-08-31T12:07:05.755Z,6.57
2018-08-31T12:09:36.358Z,6.00
2018-08-31T12:12:07.120Z,5.57
2018-08-31T12:14:37.487Z,6.77
2018-08-31T12:17:08.176Z,6.73
2018-08-31T12:19:38.803Z,6.50
2018-08-31T12:22:09.458Z,7.17
2018-08-31T12:24:40.374Z,5.77
2018-08-31T12:27:10.481Z,6.37
2018-08-31T12:29:41.731Z,5.95
2018-08-31T12:32:11.859Z,5.83
2018-08-31T12:34:42.182Z,6.57
2018-08-31T12:37:12.726Z,5.97
2018-08-31T12:39:42.768Z,6.90
2018-08-31T12:42:12.855Z,6.20
2018-08-31T12:44:43.235Z,6.10
2018-08-31T12:47:13.696Z,6.57
2018-08-31T12:49:43.798Z,6.80
2018-08-31T12:52:14.362Z,6.87
2018-08-31T12:54:44.853Z,6.53
2018-08-31T12:57:15.382Z,7.90
2018-08-31T12:59:50.684Z,7.50
2018-08-31T13:02:21.590Z,7.47
2018-08-31T13:04:52.296Z,8.00
2018-08-31T13:07:23.045Z,7.03
2018-08-31T13:09:53.291Z,7.17
2018-08-31T13:12:24.172Z,7.63
2018-08-31T13:14:54.598Z,6.93
2018-08-31T13:17:24.787Z,7.33
2018-08-31T13:19:55.058Z,7.50
2018-08-31T13:22:25.255Z,7.33
2018-08-31T13:24:55.486Z,7.87
2018-08-31T13:27:25.870Z,8.17
2018-08-31T13:29:56.024Z,7.33
2018-08-31T13:32:26.602Z,7.47
2018-08-31T13:34:56.791Z,7.20
2018-08-31T13:37:26.931Z,7.70
2018-08-31T13:39:57.581Z,8.10
2018-08-31T13:42:27.775Z,7.83
2018-08-31T13:44:58.305Z,8.13
2018-08-31T13:47:28.452Z,8.20
2018-08-31T13:49:58.838Z,8.50
2018-08-31T13:52:28.991Z,8.13
2018-08-31T13:54:59.380Z,8.00
2018-08-31T13:57:29.566Z,7.47
2018-08-31T14:00:00.335Z,7.83
2018-08-31T14:02:30.746Z,8.50
2018-08-31T14:05:01.082Z,7.97
2018-08-31T14:07:31.959Z,8.00
2018-08-31T14:10:02.028Z,7.30
2018-08-31T14:12:32.471Z,7.53
2018-08-31T14:15:03.078Z,7.57
2018-08-31T14:17:33.137Z,8.93
2018-08-31T14:20:03.601Z,8.27
2018-08-31T14:22:34.005Z,7.67
2018-08-31T14:25:04.202Z,8.00
2018-08-31T14:27:34.278Z,8.43
2018-08-31T14:30:04.563Z,8.00
2018-08-31T14:32:34.791Z,7.60
2018-08-31T14:35:04.966Z,8.77
2018-08-31T14:37:35.077Z,7.57
2018-08-31T14:40:05.807Z,7.97
2018-08-31T14:42:35.896Z,8.03
2018-08-31T14:45:07.312Z,8.47
2018-08-31T14:47:38.124Z,9.00
2018-08-31T14:50:08.406Z,8.47
2018-08-31T14:52:38.621Z,9.73
2018-08-31T14:55:08.871Z,8.97
2018-08-31T14:57:41.106Z,9.13
2018-08-31T15:00:11.720Z,8.77
2018-08-31T15:02:42.599Z,9.70
2018-08-31T15:05:12.823Z,9.80
2018-08-31T15:07:43.029Z,9.73
2018-08-31T15:10:14.113Z,9.60
2018-08-31T15:12:45.441Z,10.13
2018-08-31T15:15:16.201Z,10.03
2018-08-31T15:17:46.725Z,10.80
2018-08-31T15:20:17.088Z,9.90
2018-08-31T15:22:47.509Z,10.70
2018-08-31T15:25:17.878Z,10.70
2018-08-31T15:27:48.604Z,12.53
2018-08-31T15:30:18.831Z,11.57
2018-08-31T15:32:49.389Z,11.50
2018-08-31T15:35:19.799Z,11.87
2018-08-31T15:37:51.105Z,11.83
2018-08-31T15:40:21.705Z,11.50
2018-08-31T15:42:52.206Z,11.83
2018-08-31T15:45:22.817Z,11.70
2018-08-31T15:47:53.370Z,11.93
2018-08-31T15:50:23.742Z,11.93
2018-08-31T15:52:54.373Z,13.33
2018-08-31T15:55:25.105Z,13.23
2018-08-31T15:57:55.734Z,13.30
2018-08-31T16:00:26.087Z,14.37
2018-08-31T16:02:56.490Z,14.10
2018-08-31T16:05:26.988Z,14.07
2018-08-31T16:07:57.997Z,14.03
2018-08-31T16:10:28.355Z,14.10
2018-08-31T16:12:58.784Z,13.60
2018-08-31T16:15:28.978Z,14.33
2018-08-31T16:17:59.568Z,15.23
2018-08-31T16:20:29.788Z,14.80
2018-08-31T16:23:00.019Z,15.87
2018-08-31T16:25:30.552Z,15.10
2018-08-31T16:28:00.915Z,15.63
2018-08-31T16:30:31.211Z,16.33
2018-08-31T16:33:01.544Z,16.40
2018-08-31T16:35:31.803Z,17.33
2018-08-31T16:38:01.988Z,16.27
2018-08-31T16:40:33.487Z,16.63
2018-08-31T16:43:03.715Z,15.73
2018-08-31T16:45:34.715Z,17.50
2018-08-31T16:48:05.687Z,19.47
2018-08-31T16:50:36.329Z,21.10
2018-08-31T16:53:06.643Z,21.30
2018-08-31T16:55:37.002Z,19.87
2018-08-31T16:58:08.065Z,21.20
2018-08-31T17:00:39.372Z,21.43
2018-08-31T17:03:09.650Z,21.80
2018-08-31T17:05:39.946Z,24.17
2018-08-31T17:08:10.386Z,20.43
2018-08-31T17:10:40.860Z,21.50
2018-08-31T17:13:11.611Z,26.60
2018-08-31T17:15:41.979Z,24.20
2018-08-31T17:18:12.726Z,25.90
2018-08-31T17:20:43.392Z,23.30
2018-08-31T17:23:13.925Z,23.57
2018-08-31T17:25:44.899Z,23.17
2018-08-31T17:28:20.493Z,25.20
2018-08-31T17:30:55.377Z,24.30
2018-08-31T17:33:31.675Z,28.27
2018-08-31T17:36:06.946Z,25.50
2018-08-31T17:38:37.484Z,24.93
2018-08-31T17:41:08.203Z,24.10
2018-08-31T17:43:39.523Z,25.83
2018-08-31T17:46:11.870Z,28.50
2018-08-31T17:48:42.905Z,29.23
2018-08-31T17:51:13.567Z,23.60
2018-08-31T17:53:44.821Z,23.30
2018-08-31T17:56:16.445Z,23.10
2018-08-31T17:58:47.252Z,21.77
2018-08-31T18:01:18.083Z,24.00
2018-08-31T18:03:48.856Z,23.23
2018-08-31T18:06:19.398Z,26.13
2018-08-31T18:08:50.444Z,21.30
2018-08-31T18:11:21.143Z,22.93
2018-08-31T18:13:51.498Z,20.90
2018-08-31T18:16:22.005Z,19.97
2018-08-31T18:18:52.708Z,22.80
2018-08-31T18:21:23.038Z,27.33
2018-08-31T18:23:53.543Z,32.67
2018-08-31T18:26:24.041Z,25.07
2018-08-31T18:28:54.718Z,28.90
2018-08-31T18:31:25.416Z,22.70
2018-08-31T18:33:56.416Z,27.20
2018-08-31T18:36:27.435Z,27.57
2018-08-31T18:38:58.344Z,27.40
2018-08-31T18:41:29.276Z,22.27
2018-08-31T18:44:00.268Z,24.00
2018-08-31T18:46:30.879Z,25.33
2018-08-31T18:49:02.146Z,30.53
2018-08-31T18:51:33.225Z,25.43
2018-08-31T18:54:04.140Z,27.27
2018-08-31T18:56:34.969Z,26.50
2018-08-31T18:59:05.916Z,25.27
2018-08-31T19:01:36.866Z,25.13
2018-08-31T19:04:07.611Z,27.83
2018-08-31T19:06:38.573Z,27.60
2018-08-31T19:09:10.155Z,29.07
2018-08-31T19:11:40.727Z,23.47
2018-08-31T19:14:11.367Z,28.10
2018-08-31T19:16:42.229Z,27.57
2018-08-31T19:19:12.904Z,24.53
2018-08-31T19:21:43.362Z,29.07
2018-08-31T19:24:14.331Z,27.93
2018-08-31T19:26:44.885Z,25.03
2018-08-31T19:29:15.800Z,30.03
2018-08-31T19:31:46.639Z,25.33
2018-08-31T19:34:17.283Z,28.93
2018-08-31T19:36:47.774Z,26.00
2018-08-31T19:39:18.318Z,24.23
2018-08-31T19:41:48.885Z,26.93
2018-08-31T19:44:19.729Z,25.50
2018-08-31T19:46:50.678Z,29.80
2018-08-31T19:49:21.415Z,29.37
2018-08-31T19:51:52.161Z,33.27
2018-08-31T19:54:22.965Z,28.10
2018-08-31T19:56:53.610Z,29.67
2018-08-31T19:59:24.529Z,27.30
2018-08-31T20:01:55.115Z,28.20
2018-08-31T20:04:26.358Z,30.13
2018-08-31T20:06:57.227Z,32.50
2018-08-31T20:09:27.999Z,27.17
2018-08-31T20:11:58.971Z,29.20
2018-08-31T20:14:29.664Z,29.10
2018-08-31T20:16:59.988Z,28.53
2018-08-31T20:19:31.130Z,31.13
2018-08-31T20:22:02.024Z,32.90
2018-08-31T20:24:32.817Z,31.20
2018-08-31T20:27:03.561Z,34.47
2018-08-31T20:29:34.387Z,32.23
2018-08-31T20:32:05.615Z,35.43
2018-08-31T20:34:36.274Z,36.17
2018-08-31T20:37:07.437Z,39.20
2018-08-31T20:39:42.465Z,31.67
2018-08-31T20:42:13.662Z,32.13
2018-08-31T20:44:44.609Z,31.00
2018-08-31T20:47:16.199Z,30.20
2018-08-31T20:49:47.082Z,28.03
2018-08-31T20:52:17.700Z,30.73
2018-08-31T20:54:48.332Z,26.40
2018-08-31T20:57:19.251Z,27.63
2018-08-31T20:59:49.834Z,27.40
2018-08-31T21:02:20.876Z,26.57
2018-08-31T21:04:51.524Z,26.30
2018-08-31T21:07:22.395Z,26.13
2018-08-31T21:09:53.675Z,26.60
2018-08-31T21:12:24.244Z,26.33
2018-08-31T21:14:56.002Z,28.23
2018-08-31T21:17:26.982Z,28.20
2018-08-31T21:19:58.049Z,28.57
2018-08-31T21:22:28.973Z,27.30
2018-08-31T21:24:59.891Z,29.40
2018-08-31T21:27:30.662Z,27.20
2018-08-31T21:30:01.491Z,27.47
2018-08-31T21:32:32.269Z,27.43
2018-08-31T21:35:03.058Z,28.33
2018-08-31T21:37:33.905Z,28.87
2018-08-31T21:40:04.977Z,32.77
2018-08-31T21:42:36.105Z,31.33
2018-08-31T21:45:07.331Z,28.53
2018-08-31T21:47:38.043Z,24.30
2018-08-31T21:50:09.480Z,24.50
2018-08-31T21:52:40.797Z,23.13
2018-08-31T21:55:11.548Z,24.50
2018-08-31T21:57:42.260Z,26.47
2018-08-31T22:00:18.111Z,27.83
2018-08-31T22:02:49.405Z,24.40
2018-08-31T22:05:20.103Z,27.47
2018-08-31T22:07:50.873Z,27.83
2018-08-31T22:10:21.793Z,22.80
2018-08-31T22:12:52.510Z,22.90
2018-08-31T22:15:25.894Z,23.30
2018-08-31T22:17:56.848Z,22.70
2018-08-31T22:20:27.914Z,20.50
2018-08-31T22:22:58.774Z,22.10
2018-08-31T22:25:29.615Z,25.27
2018-08-31T22:28:00.447Z,23.33
2018-08-31T22:30:32.260Z,24.83
2018-08-31T22:33:03.037Z,29.90
2018-08-31T22:35:33.612Z,29.13
2018-08-31T22:38:05.428Z,32.40
2018-08-31T22:40:35.935Z,30.60
2018-08-31T22:43:06.982Z,34.73
2018-08-31T22:45:37.603Z,30.00
2018-08-31T22:48:08.260Z,30.40
2018-08-31T22:50:38.860Z,28.73
2018-08-31T22:53:09.808Z,34.30
2018-08-31T22:55:41.020Z,30.63
2018-08-31T22:58:17.105Z,30.53
2018-08-31T23:00:48.140Z,35.73
2018-08-31T23:03:18.964Z,31.30
2018-08-31T23:05:49.617Z,33.73
2018-08-31T23:08:20.268Z,29.93
2018-08-31T23:10:50.910Z,36.83
2018-08-31T23:13:21.649Z,34.83
2018-08-31T23:15:52.407Z,38.60
2018-08-31T23:18:23.153Z,42.70
2018-08-31T23:20:53.742Z,42.00
2018-08-31T23:23:28.735Z,38.17
2018-08-31T23:25:59.435Z,41.23
2018-08-31T23:28:30.391Z,39.30
2018-08-31T23:31:01.017Z,41.57
2018-08-31T23:33:31.579Z,42.23
2018-08-31T23:36:02.676Z,40.17
2018-08-31T23:38:33.694Z,39.97
2018-08-31T23:41:04.449Z,43.03
2018-08-31T23:43:35.168Z,45.00
2018-08-31T23:46:23.643Z,44.77
2018-08-31T23:48:54.326Z,42.20
2018-08-31T23:51:25.313Z,43.70
2018-08-31T23:53:56.125Z,44.00
2018-08-31T23:56:26.765Z,42.40
2018-08-31T23:58:57.608Z,43.93
